createdAt,value
2023-01-25T00:01:06.695Z,21.10
2023-01-25T00:06:10.229Z,20.10
2023-01-25T00:11:13.096Z,22.43
2023-01-25T00:16:17.359Z,21.20
2023-01-25T00:21:22.146Z,22.37
2023-01-25T00:26:25.062Z,21.80
2023-01-25T00:31:41.833Z,23.57
2023-01-25T00:36:46.233Z,22.30
2023-01-25T00:41:49.149Z,22.57
2023-01-25T00:46:53.377Z,22.63
2023-01-25T00:51:56.530Z,21.67
2023-01-25T00:56:59.671Z,21.37
2023-01-25T01:02:04.603Z,20.10
2023-01-25T01:07:07.623Z,22.03
2023-01-25T01:12:10.607Z,21.60
2023-01-25T01:17:14.868Z,20.97
2023-01-25T01:22:17.822Z,20.13
2023-01-25T01:27:20.721Z,19.63
2023-01-25T01:32:25.222Z,18.83
2023-01-25T01:37:28.204Z,20.30
2023-01-25T01:42:31.061Z,20.00
2023-01-25T01:47:45.877Z,20.60
2023-01-25T01:52:51.369Z,20.17
2023-01-25T01:57:59.004Z,19.43
2023-01-25T02:03:03.577Z,18.33
2023-01-25T02:08:08.999Z,19.70
2023-01-25T02:13:12.175Z,18.63
2023-01-25T02:18:17.255Z,18.70
2023-01-25T02:23:26.925Z,18.77
2023-01-25T02:28:36.124Z,18.70
2023-01-25T02:33:40.730Z,20.17
2023-01-25T02:38:47.947Z,19.93
2023-01-25T02:43:53.226Z,17.27
2023-01-25T02:48:56.825Z,18.80
2023-01-25T02:54:00.754Z,17.17
2023-01-25T02:59:05.904Z,19.50
2023-01-25T03:04:10.869Z,18.30
2023-01-25T03:09:14.053Z,17.17
2023-01-25T03:14:23.008Z,16.60
2023-01-25T03:19:26.285Z,15.13
2023-01-25T03:24:29.570Z,14.80
2023-01-25T03:29:34.521Z,11.90
2023-01-25T03:34:39.609Z,11.57
2023-01-25T03:39:43.156Z,11.20
2023-01-25T03:44:47.660Z,13.77
2023-01-25T03:49:50.502Z,13.17
2023-01-25T03:54:55.144Z,14.40
2023-01-25T04:00:00.772Z,15.60
2023-01-25T04:05:03.892Z,13.90
2023-01-25T04:10:08.860Z,14.60
2023-01-25T04:15:16.445Z,11.50
2023-01-25T04:20:19.740Z,11.37
2023-01-25T04:25:23.156Z,10.30
2023-01-25T04:30:31.102Z,11.87
2023-01-25T04:35:34.245Z,11.13
2023-01-25T04:40:38.863Z,10.70
2023-01-25T04:45:43.213Z,11.17
2023-01-25T04:50:53.228Z,11.70
2023-01-25T04:55:58.309Z,11.87
2023-01-25T05:01:03.807Z,12.73
2023-01-25T05:06:08.256Z,11.60
2023-01-25T05:11:11.648Z,12.63
2023-01-25T05:16:30.630Z,13.17
2023-01-25T05:21:52.381Z,12.13
2023-01-25T05:27:01.624Z,11.50
2023-01-25T05:32:17.093Z,13.13
2023-01-25T05:37:21.994Z,11.57
2023-01-25T05:42:32.523Z,13.67
2023-01-25T05:47:37.600Z,12.60
2023-01-25T05:52:41.027Z,13.20
2023-01-25T05:57:45.285Z,13.10
2023-01-25T06:02:49.759Z,13.60
2023-01-25T06:07:58.709Z,11.50
2023-01-25T06:13:06.217Z,12.60
2023-01-25T06:18:10.625Z,12.07
2023-01-25T06:23:33.524Z,12.50
2023-01-25T06:28:38.123Z,11.37
2023-01-25T06:33:43.736Z,12.03
2023-01-25T06:38:49.604Z,11.27
2023-01-25T06:43:52.909Z,14.50
2023-01-25T06:48:57.312Z,13.67
2023-01-25T06:54:03.579Z,12.30
2023-01-25T06:59:06.571Z,11.67
2023-01-25T07:04:13.013Z,12.87
2023-01-25T07:09:16.350Z,13.50
2023-01-25T07:14:19.244Z,12.17
2023-01-25T07:19:23.695Z,13.77
2023-01-25T07:24:29.128Z,13.20
2023-01-25T07:29:32.084Z,13.10
2023-01-25T07:34:36.355Z,12.07
2023-01-25T07:39:40.802Z,11.93
2023-01-25T07:44:43.765Z,11.53
2023-01-25T07:49:50.363Z,10.60
2023-01-25T07:54:53.253Z,9.87
2023-01-25T07:59:56.391Z,10.97
2023-01-25T08:05:00.773Z,11.17
2023-01-25T08:10:03.659Z,8.77
2023-01-25T08:15:08.502Z,10.10
2023-01-25T08:20:13.989Z,8.77
2023-01-25T08:25:16.921Z,8.80
2023-01-25T08:30:20.185Z,9.10
2023-01-25T08:35:24.450Z,8.60
2023-01-25T08:40:27.409Z,8.93
2023-01-25T08:45:34.473Z,10.30
2023-01-25T08:50:38.757Z,9.03
2023-01-25T08:55:43.121Z,8.67
2023-01-25T09:00:46.230Z,8.60
2023-01-25T09:05:50.499Z,8.67
2023-01-25T09:10:53.431Z,8.43
2023-01-25T09:16:00.851Z,7.40
2023-01-25T09:21:08.898Z,7.37
2023-01-25T09:26:15.381Z,7.20
2023-01-25T09:31:22.898Z,6.57
2023-01-25T09:36:47.510Z,7.40
2023-01-25T09:42:20.477Z,7.40
2023-01-25T09:47:30.593Z,6.60
2023-01-25T09:53:06.919Z,7.33
2023-01-25T09:58:15.692Z,6.47
2023-01-25T10:03:24.971Z,5.50
2023-01-25T10:08:33.764Z,5.83
2023-01-25T10:13:36.700Z,6.00
2023-01-25T10:18:45.808Z,6.50
2023-01-25T10:24:13.962Z,6.23
2023-01-25T10:29:20.891Z,6.37
2023-01-25T10:34:27.486Z,7.10
2023-01-25T10:39:35.278Z,7.17
2023-01-25T10:44:38.344Z,6.83
2023-01-25T10:49:43.214Z,6.97
2023-01-25T10:54:50.289Z,8.03
2023-01-25T10:59:54.097Z,9.00
2023-01-25T11:04:56.985Z,8.00
2023-01-25T11:10:01.410Z,8.03
2023-01-25T11:15:25.791Z,8.60
2023-01-25T11:20:28.776Z,6.90
2023-01-25T11:25:34.795Z,8.23
2023-01-25T11:30:37.882Z,8.03
2023-01-25T11:36:00.051Z,7.43
2023-01-25T11:41:13.796Z,7.40
2023-01-25T11:46:32.105Z,8.33
2023-01-25T11:51:40.610Z,9.07
2023-01-25T11:56:55.401Z,9.27
2023-01-25T12:02:13.435Z,8.60
2023-01-25T12:07:25.425Z,7.90
2023-01-25T12:12:41.960Z,7.80
2023-01-25T12:18:01.018Z,7.50
2023-01-25T12:23:31.541Z,8.37
2023-01-25T12:28:42.121Z,8.00
2023-01-25T12:33:50.801Z,8.67
2023-01-25T12:38:59.773Z,9.07
2023-01-25T12:44:13.961Z,7.97
2023-01-25T12:49:24.848Z,8.47
2023-01-25T12:54:34.611Z,8.20
2023-01-25T12:59:46.841Z,8.87
2023-01-25T13:05:01.033Z,8.70
2023-01-25T13:10:11.587Z,8.57
2023-01-25T13:15:37.582Z,7.90
2023-01-25T13:20:50.434Z,10.47
2023-01-25T13:25:53.369Z,9.60
2023-01-25T13:30:57.592Z,12.20
2023-01-25T13:36:39.853Z,10.00
2023-01-25T13:41:59.773Z,9.60
2023-01-25T13:47:06.895Z,10.70
2023-01-25T13:52:16.865Z,9.00
2023-01-25T13:57:22.542Z,11.20
2023-01-25T14:02:28.302Z,9.40
2023-01-25T14:07:34.634Z,9.23
2023-01-25T14:12:40.249Z,11.37
2023-01-25T14:17:44.745Z,10.40
2023-01-25T14:22:52.233Z,10.03
2023-01-25T14:27:57.095Z,12.57
2023-01-25T14:33:04.016Z,9.83
2023-01-25T14:38:24.978Z,12.30
2023-01-25T14:43:29.030Z,13.43
2023-01-25T14:48:38.122Z,10.77
2023-01-25T14:53:43.876Z,12.07
2023-01-25T14:58:50.808Z,12.27
2023-01-25T15:04:03.346Z,12.00
2023-01-25T15:09:06.343Z,13.07
2023-01-25T15:14:18.202Z,13.60
2023-01-25T15:19:28.885Z,14.40
2023-01-25T15:24:31.770Z,13.37
2023-01-25T15:29:34.657Z,13.10
2023-01-25T15:34:38.952Z,15.37
2023-01-25T15:39:41.833Z,14.17
2023-01-25T15:44:44.773Z,13.80
2023-01-25T15:49:49.589Z,14.47
2023-01-25T15:55:01.480Z,15.00
2023-01-25T16:00:06.739Z,17.57
2023-01-25T16:05:11.366Z,16.70
2023-01-25T16:10:24.218Z,14.77
2023-01-25T16:15:27.157Z,15.10
2023-01-25T16:20:31.692Z,19.10
2023-01-25T16:25:34.568Z,18.53
2023-01-25T16:30:37.524Z,16.50
2023-01-25T16:35:41.800Z,19.00
2023-01-25T16:40:44.813Z,21.07
2023-01-25T16:45:47.729Z,18.63
2023-01-25T16:50:52.821Z,18.00
2023-01-25T16:55:55.712Z,20.10
2023-01-25T17:00:58.596Z,19.73
2023-01-25T17:06:02.853Z,19.90
2023-01-25T17:11:06.412Z,21.77
2023-01-25T17:16:09.642Z,22.53
2023-01-25T17:21:16.887Z,21.17
2023-01-25T17:26:21.946Z,20.07
2023-01-25T17:31:27.654Z,21.63
2023-01-25T17:36:32.078Z,20.17
2023-01-25T17:41:35.155Z,21.77
2023-01-25T17:46:38.370Z,21.57
2023-01-25T17:51:42.610Z,22.53
2023-01-25T17:56:45.513Z,19.77
2023-01-25T18:01:48.562Z,21.47
2023-01-25T18:06:53.016Z,21.40
2023-01-25T18:11:55.861Z,21.47
2023-01-25T18:16:58.983Z,31.30
2023-01-25T18:22:03.309Z,38.13
2023-01-25T18:27:08.244Z,21.20
2023-01-25T18:32:11.149Z,25.47
2023-01-25T18:37:29.287Z,22.50
2023-01-25T18:42:32.223Z,25.83
2023-01-25T18:47:35.112Z,20.63
2023-01-25T18:52:39.430Z,21.47
2023-01-25T18:57:42.343Z,19.97
2023-01-25T19:02:45.315Z,22.10
2023-01-25T19:07:49.608Z,20.70
2023-01-25T19:12:52.530Z,21.40
2023-01-25T19:17:55.408Z,21.77
2023-01-25T19:22:59.641Z,20.63
2023-01-25T19:28:02.987Z,21.97
2023-01-25T19:33:05.891Z,22.50
2023-01-25T19:38:10.286Z,22.57
2023-01-25T19:43:13.223Z,21.87
2023-01-25T19:48:16.141Z,21.27
2023-01-25T19:53:20.390Z,22.40
2023-01-25T19:58:27.314Z,21.43
2023-01-25T20:03:30.910Z,22.47
2023-01-25T20:08:36.943Z,24.20
2023-01-25T20:13:39.997Z,26.30
2023-01-25T20:18:42.934Z,29.80
2023-01-25T20:23:49.197Z,28.53
2023-01-25T20:28:53.523Z,26.23
2023-01-25T20:33:58.986Z,24.97
2023-01-25T20:39:03.810Z,33.70
2023-01-25T20:44:08.635Z,37.40
2023-01-25T20:49:15.462Z,26.33
2023-01-25T20:54:21.264Z,27.37
2023-01-25T20:59:24.154Z,24.90
2023-01-25T21:04:27.050Z,24.70
2023-01-25T21:09:31.308Z,26.43
2023-01-25T21:14:34.251Z,25.00
2023-01-25T21:19:37.560Z,26.47
2023-01-25T21:24:41.842Z,25.50
2023-01-25T21:29:46.996Z,25.70
2023-01-25T21:34:50.041Z,23.50
2023-01-25T21:39:54.341Z,25.93
2023-01-25T21:45:14.568Z,25.17
2023-01-25T21:50:35.565Z,28.27
2023-01-25T21:55:39.885Z,26.60
2023-01-25T22:00:42.796Z,27.57
2023-01-25T22:05:45.673Z,27.80
2023-01-25T22:10:50.232Z,26.33
2023-01-25T22:15:53.190Z,25.23
2023-01-25T22:20:59.621Z,23.93
2023-01-25T22:26:08.807Z,22.33
2023-01-25T22:31:11.787Z,24.10
2023-01-25T22:36:17.051Z,21.50
2023-01-25T22:41:22.671Z,21.20
2023-01-25T22:46:28.006Z,22.63
2023-01-25T22:51:31.722Z,20.83
2023-01-25T22:56:36.015Z,21.83
2023-01-25T23:01:39.054Z,23.00
2023-01-25T23:06:41.946Z,26.27
2023-01-25T23:11:46.206Z,27.10
2023-01-25T23:16:49.243Z,27.13
2023-01-25T23:21:52.162Z,28.47
2023-01-25T23:26:56.433Z,25.90
2023-01-25T23:32:00.133Z,26.00
2023-01-25T23:37:03.097Z,25.40
2023-01-25T23:42:07.475Z,28.30
2023-01-25T23:47:10.401Z,27.90
2023-01-25T23:52:13.389Z,26.80
2023-01-25T23:57:17.649Z,25.60
